Aérodrome :
LOGIN :

S'inscrire | Disclaimer

   EN    FR    IT 

 










Légende :    VFR   VFR Marginal   IFR   IFR Intensif   IFR Très Intensif
Visi : 
Plafond : 
>= 8 km
>= 3000ft
5 à 8 km
1000 à 3000 ft
1500m à 5 km
500 à 1000 ft
800 à 1500m
200 à 500 ft
< 800m
< 200 ft
Symboles :   Orages  Brouillard  Fortes neiges  Fortes précipitations  Vent > 20 kt
SIGMETs :   Divers  Orages  Givrage  Turbulence  Onde Orograph.  Cendres Volcan.







- Altitude de l'aérodrome : 56 ft
- Code IATA : BZR
- Voir les cartes d'approche


LFMU - Beziers / Vias

DERNIER METAR :
  • 221830Z AUTO 13001KT CAVOK 17/15 Q1020 TEMPO BKN012

METARs EXPIRÉS :
  • 221800Z AUTO VRB02KT CAVOK 18/15 Q1020 NOSIG
  • 221730Z AUTO VRB03KT CAVOK 18/15 Q1020 NOSIG
  • 221700Z AUTO 18004KT 150V220 CAVOK 19/15 Q1020 NOSIG
  • 221630Z AUTO 20007KT CAVOK 19/15 Q1020 NOSIG
  • 221600Z AUTO 18007KT 150V210 CAVOK 19/14 Q1020 NOSIG

TAF TAF LFMU
Valide du 22 à 15h jusqu'au 23 à 15h UTC


221400Z 2215/2315 VRB05KT CAVOK
PROB30
TEMPO 2220/2224 BKN012
BECMG 2300/2302 BKN014
TEMPO 2300/2306 2000 BR BKN005
BECMG 2310/2312 CAVOK
ATIS : +33 4 67 90 88 88
Pas de NOTAMs connus pour ce terrain.



MET'MAP, la Météo Aéronautique d'un coup d'oeil ! - Copyright ORBIFLY Décembre 2007 - Disclaimer

ORBIFLY MET'MAP TEAM :

Programmation & Développement : Alexandra Zaïnal
Conception & Développement : Baudouin d'Aumeries
Co-Programmation & Développement : Marc-Olivier Méhu
Soutien technique & logistique : Manuel Goepfert

Contact : metmap@orbifly.com




SOURCES & CREDITS :

   NOAA